sensor_id;sensor_type;location;lat;lon;timestamp;pressure;altitude;pressure_sealevel;temperature;humidity
6532;BME280;3299;42.004;24.868;2023-05-01T00:00:47;98095.53;;;13.53;100.00
6532;BME280;3299;42.004;24.868;2023-05-01T00:03:13;98142.44;;;13.91;95.76
6532;BME280;3299;42.004;24.868;2023-05-01T00:05:39;98165.66;;;14.13;93.72
6532;BME280;3299;42.004;24.868;2023-05-01T00:08:04;98117.69;;;13.96;90.43
6532;BME280;3299;42.004;24.868;2023-05-01T00:10:29;98086.03;;;13.82;87.33
6532;BME280;3299;42.004;24.868;2023-05-01T00:12:55;98126.88;;;14.10;87.29
6532;BME280;3299;42.004;24.868;2023-05-01T00:15:20;98079.59;;;13.86;85.87
6532;BME280;3299;42.004;24.868;2023-05-01T00:17:46;98099.09;;;14.01;85.99
6532;BME280;3299;42.004;24.868;2023-05-01T00:20:12;98156.16;;;14.32;86.46
6532;BME280;3299;42.004;24.868;2023-05-01T00:22:38;98129.09;;;14.14;90.05
6532;BME280;3299;42.004;24.868;2023-05-01T00:25:03;98141.19;;;14.25;94.46
6532;BME280;3299;42.004;24.868;2023-05-01T00:27:29;98142.84;;;14.26;97.21
6532;BME280;3299;42.004;24.868;2023-05-01T00:29:54;98164.53;;;14.55;96.31
6532;BME280;3299;42.004;24.868;2023-05-01T00:32:20;98095.84;;;14.18;93.48
6532;BME280;3299;42.004;24.868;2023-05-01T00:34:45;98083.03;;;13.86;97.75
6532;BME280;3299;42.004;24.868;2023-05-01T00:37:12;98159.16;;;14.28;91.76
6532;BME280;3299;42.004;24.868;2023-05-01T00:39:38;98153.63;;;14.12;84.42
6532;BME280;3299;42.004;24.868;2023-05-01T00:42:03;98074.28;;;13.48;82.67
6532;BME280;3299;42.004;24.868;2023-05-01T00:44:28;98106.06;;;13.61;83.25
6532;BME280;3299;42.004;24.868;2023-05-01T00:46:54;98130.47;;;13.69;81.48
6532;BME280;3299;42.004;24.868;2023-05-01T00:49:20;98058.56;;;13.19;81.69
6532;BME280;3299;42.004;24.868;2023-05-01T00:51:48;98079.91;;;13.23;82.01
6532;BME280;3299;42.004;24.868;2023-05-01T00:54:17;98145.44;;;13.47;82.75
6532;BME280;3299;42.004;24.868;2023-05-01T00:56:45;98054.59;;;12.95;82.71
6532;BME280;3299;42.004;24.868;2023-05-01T00:59:11;98058.22;;;13.03;82.40
6532;BME280;3299;42.004;24.868;2023-05-01T01:01:36;98122.19;;;13.55;81.34
6532;BME280;3299;42.004;24.868;2023-05-01T01:04:02;98121.91;;;13.78;80.43
6532;BME280;3299;42.004;24.868;2023-05-01T01:06:33;98045.16;;;13.54;77.98
6532;BME280;3299;42.004;24.868;2023-05-01T01:09:08;98132.72;;;14.23;79.50
6532;BME280;3299;42.004;24.868;2023-05-01T01:11:46;98075.94;;;13.98;77.91
6532;BME280;3299;42.004;24.868;2023-05-01T01:14:20;98094.19;;;14.17;78.87
6532;BME280;3299;42.004;24.868;2023-05-01T01:16:56;98089.25;;;14.14;78.63
6532;BME280;3299;42.004;24.868;2023-05-01T01:22:11;98058.31;;;14.11;78.05
6532;BME280;3299;42.004;24.868;2023-05-01T01:34:00;98092.34;;;14.57;75.84
6532;BME280;3299;42.004;24.868;2023-05-01T01:42:17;98087.94;;;14.38;82.68
6532;BME280;3299;42.004;24.868;2023-05-01T01:44:54;98065.97;;;14.12;83.84
6532;BME280;3299;42.004;24.868;2023-05-01T01:47:23;98108.47;;;14.22;85.14
6532;BME280;3299;42.004;24.868;2023-05-01T01:49:53;98130.44;;;14.09;87.71
6532;BME280;3299;42.004;24.868;2023-05-01T01:52:22;98166.22;;;14.16;89.13
6532;BME280;3299;42.004;24.868;2023-05-01T01:55:03;98103.50;;;13.70;90.64
6532;BME280;3299;42.004;24.868;2023-05-01T01:57:30;98085.22;;;13.42;94.90
6532;BME280;3299;42.004;24.868;2023-05-01T01:59:57;98152.47;;;13.65;95.76
6532;BME280;3299;42.004;24.868;2023-05-01T02:02:23;98157.19;;;13.51;98.61
6532;BME280;3299;42.004;24.868;2023-05-01T02:04:51;98149.78;;;13.46;97.33
6532;BME280;3299;42.004;24.868;2023-05-01T02:07:21;98143.28;;;13.11;100.00
6532;BME280;3299;42.004;24.868;2023-05-01T02:09:48;98098.84;;;12.73;100.00
6532;BME280;3299;42.004;24.868;2023-05-01T02:12:15;98122.91;;;12.75;100.00
6532;BME280;3299;42.004;24.868;2023-05-01T02:14:43;98155.66;;;12.87;100.00
6532;BME280;3299;42.004;24.868;2023-05-01T02:17:09;98092.28;;;12.37;100.00
6532;BME280;3299;42.004;24.868;2023-05-01T02:19:37;98166.50;;;12.60;100.00
6532;BME280;3299;42.004;24.868;2023-05-01T02:22:06;98095.34;;;12.00;100.00
6532;BME280;3299;42.004;24.868;2023-05-01T02:24:32;98136.66;;;12.23;100.00
6532;BME280;3299;42.004;24.868;2023-05-01T02:27:03;98156.16;;;12.49;100.00
6532;BME280;3299;42.004;24.868;2023-05-01T02:29:31;98162.84;;;12.63;100.00
6532;BME280;3299;42.004;24.868;2023-05-01T02:31:58;98163.50;;;12.76;100.00
6532;BME280;3299;42.004;24.868;2023-05-01T02:34:24;98156.00;;;12.62;100.00
6532;BME280;3299;42.004;24.868;2023-05-01T02:36:49;98123.44;;;12.58;100.00
6532;BME280;3299;42.004;24.868;2023-05-01T02:39:15;98113.41;;;12.33;100.00
6532;BME280;3299;42.004;24.868;2023-05-01T02:41:41;98158.78;;;12.38;100.00
6532;BME280;3299;42.004;24.868;2023-05-01T02:44:08;98105.69;;;12.11;99.16
6532;BME280;3299;42.004;24.868;2023-05-01T02:46:35;98136.28;;;12.28;100.00
6532;BME280;3299;42.004;24.868;2023-05-01T02:49:02;98156.06;;;12.40;98.18
6532;BME280;3299;42.004;24.868;2023-05-01T02:51:28;98122.09;;;12.00;100.00
6532;BME280;3299;42.004;24.868;2023-05-01T02:53:56;98190.56;;;12.20;100.00
6532;BME280;3299;42.004;24.868;2023-05-01T02:56:22;98177.97;;;12.15;100.00
6532;BME280;3299;42.004;24.868;2023-05-01T02:58:50;98129.53;;;11.94;100.00
6532;BME280;3299;42.004;24.868;2023-05-01T03:01:17;98091.41;;;11.63;100.00
6532;BME280;3299;42.004;24.868;2023-05-01T03:03:42;98134.28;;;11.78;100.00
6532;BME280;3299;42.004;24.868;2023-05-01T03:06:08;98127.69;;;11.63;100.00
6532;BME280;3299;42.004;24.868;2023-05-01T03:08:33;98143.69;;;11.79;100.00
6532;BME280;3299;42.004;24.868;2023-05-01T03:10:59;98144.28;;;11.93;100.00
6532;BME280;3299;42.004;24.868;2023-05-01T03:13:28;98187.13;;;12.19;100.00
6532;BME280;3299;42.004;24.868;2023-05-01T03:15:53;98133.19;;;11.91;100.00
6532;BME280;3299;42.004;24.868;2023-05-01T03:18:19;98183.00;;;12.17;100.00
6532;BME280;3299;42.004;24.868;2023-05-01T03:20:51;98160.25;;;12.09;100.00
6532;BME280;3299;42.004;24.868;2023-05-01T03:23:21;98097.63;;;11.82;97.69
6532;BME280;3299;42.004;24.868;2023-05-01T03:25:47;98190.75;;;12.39;97.91
6532;BME280;3299;42.004;24.868;2023-05-01T03:28:13;98112.81;;;11.87;100.00
6532;BME280;3299;42.004;24.868;2023-05-01T03:30:39;98180.38;;;12.39;100.00
6532;BME280;3299;42.004;24.868;2023-05-01T03:33:04;98201.09;;;12.61;100.00
6532;BME280;3299;42.004;24.868;2023-05-01T03:35:30;98118.16;;;12.17;93.88
6532;BME280;3299;42.004;24.868;2023-05-01T03:37:55;98142.06;;;12.31;91.24
6532;BME280;3299;42.004;24.868;2023-05-01T03:40:20;98170.47;;;12.33;91.66
6532;BME280;3299;42.004;24.868;2023-05-01T03:42:46;98117.88;;;11.88;97.51
6532;BME280;3299;42.004;24.868;2023-05-01T03:45:11;98202.53;;;12.43;96.81
6532;BME280;3299;42.004;24.868;2023-05-01T03:47:37;98122.31;;;11.97;99.82
6532;BME280;3299;42.004;24.868;2023-05-01T03:50:02;98206.66;;;12.45;94.25
6532;BME280;3299;42.004;24.868;2023-05-01T03:52:28;98141.78;;;12.03;94.11
6532;BME280;3299;42.004;24.868;2023-05-01T03:54:53;98167.91;;;12.22;94.72
6532;BME280;3299;42.004;24.868;2023-05-01T03:57:19;98147.66;;;12.16;92.52
6532;BME280;3299;42.004;24.868;2023-05-01T03:59:51;98172.59;;;12.39;93.49
6532;BME280;3299;42.004;24.868;2023-05-01T04:02:17;98160.44;;;12.39;92.93
6532;BME280;3299;42.004;24.868;2023-05-01T04:04:42;98172.16;;;12.65;92.21
6532;BME280;3299;42.004;24.868;2023-05-01T04:07:08;98161.78;;;12.65;88.51
6532;BME280;3299;42.004;24.868;2023-05-01T04:09:34;98164.13;;;12.68;87.04
6532;BME280;3299;42.004;24.868;2023-05-01T04:11:59;98194.75;;;12.85;86.53
6532;BME280;3299;42.004;24.868;2023-05-01T04:14:27;98149.19;;;12.61;85.61
6532;BME280;3299;42.004;24.868;2023-05-01T04:16:53;98185.66;;;12.80;84.86
6532;BME280;3299;42.004;24.868;2023-05-01T04:19:18;98143.72;;;12.64;85.14
6532;BME280;3299;42.004;24.868;2023-05-01T04:21:44;98193.31;;;12.92;84.39
6532;BME280;3299;42.004;24.868;2023-05-01T04:24:10;98163.50;;;12.76;83.63
6532;BME280;3299;42.004;24.868;2023-05-01T04:26:35;98233.91;;;13.25;83.33
6532;BME280;3299;42.004;24.868;2023-05-01T04:29:01;98158.97;;;12.89;82.51
6532;BME280;3299;42.004;24.868;2023-05-01T04:31:26;98214.53;;;13.29;82.01
6532;BME280;3299;42.004;24.868;2023-05-01T04:33:52;98254.78;;;13.55;82.46
6532;BME280;3299;42.004;24.868;2023-05-01T04:36:17;98190.25;;;13.19;82.03
6532;BME280;3299;42.004;24.868;2023-05-01T04:38:43;98264.03;;;13.68;82.21
6532;BME280;3299;42.004;24.868;2023-05-01T04:41:08;98264.31;;;13.75;85.77
6532;BME280;3299;42.004;24.868;2023-05-01T04:43:34;98234.97;;;13.63;83.10
6532;BME280;3299;42.004;24.868;2023-05-01T04:45:59;98254.38;;;13.80;81.59
6532;BME280;3299;42.004;24.868;2023-05-01T04:48:25;98174.94;;;13.46;80.11
6532;BME280;3299;42.004;24.868;2023-05-01T04:50:50;98226.88;;;13.87;80.71
6532;BME280;3299;42.004;24.868;2023-05-01T04:53:15;98232.19;;;14.06;79.17
6532;BME280;3299;42.004;24.868;2023-05-01T04:55:41;98269.81;;;14.22;80.03
6532;BME280;3299;42.004;24.868;2023-05-01T04:58:07;98207.31;;;13.83;81.03
6532;BME280;3299;42.004;24.868;2023-05-01T05:00:32;98249.13;;;14.00;78.39
6532;BME280;3299;42.004;24.868;2023-05-01T05:02:58;98227.06;;;13.95;79.37
6532;BME280;3299;42.004;24.868;2023-05-01T05:05:23;98288.25;;;14.40;79.02
6532;BME280;3299;42.004;24.868;2023-05-01T05:07:48;98251.47;;;14.24;79.79
6532;BME280;3299;42.004;24.868;2023-05-01T05:10:14;98253.41;;;14.31;77.21
6532;BME280;3299;42.004;24.868;2023-05-01T05:12:39;98297.22;;;14.66;76.44
6532;BME280;3299;42.004;24.868;2023-05-01T05:15:05;98263.44;;;14.45;76.44
6532;BME280;3299;42.004;24.868;2023-05-01T05:17:31;98267.72;;;14.56;75.12
6532;BME280;3299;42.004;24.868;2023-05-01T05:19:56;98249.34;;;14.48;74.51
6532;BME280;3299;42.004;24.868;2023-05-01T05:22:22;98293.56;;;14.78;74.55
6532;BME280;3299;42.004;24.868;2023-05-01T05:24:52;98224.69;;;14.42;74.11
6532;BME280;3299;42.004;24.868;2023-05-01T05:27:19;98232.63;;;14.50;73.41
6532;BME280;3299;42.004;24.868;2023-05-01T05:29:44;98292.22;;;14.83;73.84
6532;BME280;3299;42.004;24.868;2023-05-01T05:32:10;98321.31;;;14.98;73.55
6532;BME280;3299;42.004;24.868;2023-05-01T05:34:35;98256.22;;;14.68;73.53
6532;BME280;3299;42.004;24.868;2023-05-01T05:37:01;98224.97;;;14.68;73.38
6532;BME280;3299;42.004;24.868;2023-05-01T05:39:26;98313.69;;;15.34;71.85
6532;BME280;3299;42.004;24.868;2023-05-01T05:41:52;98295.81;;;15.30;71.54
6532;BME280;3299;42.004;24.868;2023-05-01T05:44:18;98299.41;;;15.48;71.71
6532;BME280;3299;42.004;24.868;2023-05-01T05:46:44;98239.31;;;15.21;70.91
6532;BME280;3299;42.004;24.868;2023-05-01T05:49:09;98304.06;;;15.63;70.65
6532;BME280;3299;42.004;24.868;2023-05-01T05:51:35;98260.44;;;15.37;69.52
6532;BME280;3299;42.004;24.868;2023-05-01T05:54:00;98288.72;;;15.60;69.38
6532;BME280;3299;42.004;24.868;2023-05-01T05:56:26;98269.47;;;15.61;68.90
6532;BME280;3299;42.004;24.868;2023-05-01T05:58:51;98274.28;;;15.66;68.79
6532;BME280;3299;42.004;24.868;2023-05-01T06:01:18;98299.78;;;15.91;69.04
6532;BME280;3299;42.004;24.868;2023-05-01T06:03:43;98237.91;;;15.55;68.13
6532;BME280;3299;42.004;24.868;2023-05-01T06:06:09;98242.84;;;15.58;68.71
6532;BME280;3299;42.004;24.868;2023-05-01T06:08:34;98250.53;;;15.69;67.88
6532;BME280;3299;42.004;24.868;2023-05-01T06:11:01;98276.31;;;15.91;67.68
6532;BME280;3299;42.004;24.868;2023-05-01T06:13:27;98328.94;;;16.23;67.33
6532;BME280;3299;42.004;24.868;2023-05-01T06:15:52;98325.81;;;16.19;66.78
6532;BME280;3299;42.004;24.868;2023-05-01T06:18:18;98258.97;;;15.90;67.09
6532;BME280;3299;42.004;24.868;2023-05-01T06:20:43;98318.34;;;16.34;66.71
6532;BME280;3299;42.004;24.868;2023-05-01T06:23:09;98295.16;;;16.21;66.62
6532;BME280;3299;42.004;24.868;2023-05-01T06:25:34;98340.94;;;16.62;66.71
6532;BME280;3299;42.004;24.868;2023-05-01T06:27:59;98286.84;;;16.45;65.48
6532;BME280;3299;42.004;24.868;2023-05-01T06:30:25;98336.69;;;16.88;64.95
6532;BME280;3299;42.004;24.868;2023-05-01T06:32:50;98336.88;;;17.04;65.08
6532;BME280;3299;42.004;24.868;2023-05-01T06:35:16;98337.91;;;17.11;64.99
6532;BME280;3299;42.004;24.868;2023-05-01T06:37:41;98264.41;;;16.79;63.55
6532;BME280;3299;42.004;24.868;2023-05-01T06:40:08;98344.09;;;17.37;63.01
6532;BME280;3299;42.004;24.868;2023-05-01T06:42:35;98335.53;;;17.35;62.30
6532;BME280;3299;42.004;24.868;2023-05-01T06:45:00;98344.81;;;17.29;62.48
6532;BME280;3299;42.004;24.868;2023-05-01T06:47:26;98365.34;;;17.51;63.06
6532;BME280;3299;42.004;24.868;2023-05-01T06:49:51;98326.06;;;17.34;63.67
6532;BME280;3299;42.004;24.868;2023-05-01T06:52:16;98373.19;;;17.69;63.15
6532;BME280;3299;42.004;24.868;2023-05-01T06:54:42;98294.81;;;17.32;62.50
6532;BME280;3299;42.004;24.868;2023-05-01T06:57:07;98366.88;;;17.79;61.34
6532;BME280;3299;42.004;24.868;2023-05-01T06:59:33;98330.66;;;17.67;61.64
6532;BME280;3299;42.004;24.868;2023-05-01T07:01:58;98311.03;;;17.71;62.44
6532;BME280;3299;42.004;24.868;2023-05-01T07:04:23;98340.38;;;18.00;62.41
6532;BME280;3299;42.004;24.868;2023-05-01T07:06:49;98347.56;;;18.15;63.07
6532;BME280;3299;42.004;24.868;2023-05-01T07:09:14;98392.47;;;18.46;63.47
6532;BME280;3299;42.004;24.868;2023-05-01T07:11:40;98357.84;;;18.34;62.93
6532;BME280;3299;42.004;24.868;2023-05-01T07:14:06;98377.47;;;18.56;63.30
6532;BME280;3299;42.004;24.868;2023-05-01T07:16:32;98348.91;;;18.45;64.20
6532;BME280;3299;42.004;24.868;2023-05-01T07:18:58;98409.41;;;18.85;64.94
6532;BME280;3299;42.004;24.868;2023-05-01T07:21:23;98377.41;;;18.73;65.04
6532;BME280;3299;42.004;24.868;2023-05-01T07:23:49;98422.44;;;19.02;65.58
6532;BME280;3299;42.004;24.868;2023-05-01T07:26:14;98383.22;;;18.93;65.89
6532;BME280;3299;42.004;24.868;2023-05-01T07:28:40;98421.00;;;19.08;65.61
6532;BME280;3299;42.004;24.868;2023-05-01T07:31:08;98397.34;;;19.00;65.96
6532;BME280;3299;42.004;24.868;2023-05-01T07:33:33;98399.97;;;19.00;65.63
6532;BME280;3299;42.004;24.868;2023-05-01T07:35:59;98395.03;;;18.97;66.55
6532;BME280;3299;42.004;24.868;2023-05-01T07:38:24;98405.38;;;18.98;66.60
6532;BME280;3299;42.004;24.868;2023-05-01T07:40:52;98373.97;;;18.73;66.88
6532;BME280;3299;42.004;24.868;2023-05-01T07:43:17;98425.88;;;19.03;66.91
6532;BME280;3299;42.004;24.868;2023-05-01T07:45:53;98352.63;;;18.68;67.52
6532;BME280;3299;42.004;24.868;2023-05-01T07:48:20;98430.50;;;19.09;66.66
6532;BME280;3299;42.004;24.868;2023-05-01T07:50:45;98353.25;;;18.62;65.88
6532;BME280;3299;42.004;24.868;2023-05-01T07:53:10;98395.66;;;18.91;65.19
6532;BME280;3299;42.004;24.868;2023-05-01T07:55:36;98400.63;;;19.02;65.36
6532;BME280;3299;42.004;24.868;2023-05-01T07:58:02;98428.28;;;19.22;64.66
6532;BME280;3299;42.004;24.868;2023-05-01T08:00:28;98397.22;;;19.09;65.16
6532;BME280;3299;42.004;24.868;2023-05-01T08:02:53;98417.34;;;19.26;64.20
6532;BME280;3299;42.004;24.868;2023-05-01T08:05:19;98360.66;;;19.00;64.31
6532;BME280;3299;42.004;24.868;2023-05-01T08:07:44;98420.50;;;19.46;64.37
6532;BME280;3299;42.004;24.868;2023-05-01T08:10:10;98413.28;;;19.40;63.79
6532;BME280;3299;42.004;24.868;2023-05-01T08:12:35;98434.34;;;19.64;62.62
6532;BME280;3299;42.004;24.868;2023-05-01T08:15:00;98366.34;;;19.29;63.06
6532;BME280;3299;42.004;24.868;2023-05-01T08:17:26;98437.31;;;19.77;62.44
6532;BME280;3299;42.004;24.868;2023-05-01T08:19:51;98403.13;;;19.61;64.06
6532;BME280;3299;42.004;24.868;2023-05-01T08:22:20;98432.38;;;19.90;63.05
6532;BME280;3299;42.004;24.868;2023-05-01T08:24:46;98435.50;;;19.93;62.46
6532;BME280;3299;42.004;24.868;2023-05-01T08:27:11;98401.34;;;19.77;60.46
6532;BME280;3299;42.004;24.868;2023-05-01T08:29:37;98418.63;;;19.88;59.38
6532;BME280;3299;42.004;24.868;2023-05-01T08:32:02;98417.81;;;19.95;58.42
6532;BME280;3299;42.004;24.868;2023-05-01T08:34:27;98416.00;;;20.04;58.58
6532;BME280;3299;42.004;24.868;2023-05-01T08:36:53;98406.47;;;20.03;58.86
6532;BME280;3299;42.004;24.868;2023-05-01T08:39:18;98402.03;;;19.95;58.88
6532;BME280;3299;42.004;24.868;2023-05-01T08:41:47;98429.16;;;20.12;58.09
6532;BME280;3299;42.004;24.868;2023-05-01T08:44:14;98372.97;;;19.81;58.19
6532;BME280;3299;42.004;24.868;2023-05-01T08:46:47;98393.31;;;20.03;57.82
6532;BME280;3299;42.004;24.868;2023-05-01T08:49:16;98451.31;;;20.41;55.48
6532;BME280;3299;42.004;24.868;2023-05-01T08:51:45;98441.31;;;20.29;54.95
6532;BME280;3299;42.004;24.868;2023-05-01T08:54:13;98419.81;;;20.25;55.91
6532;BME280;3299;42.004;24.868;2023-05-01T08:56:41;98433.59;;;20.43;56.96
6532;BME280;3299;42.004;24.868;2023-05-01T08:59:08;98413.72;;;20.33;56.91
6532;BME280;3299;42.004;24.868;2023-05-01T09:01:36;98437.84;;;20.52;57.66
6532;BME280;3299;42.004;24.868;2023-05-01T09:04:02;98365.44;;;20.18;57.23
6532;BME280;3299;42.004;24.868;2023-05-01T09:06:30;98394.00;;;20.29;57.79
6532;BME280;3299;42.004;24.868;2023-05-01T09:08:57;98428.47;;;20.50;56.62
6532;BME280;3299;42.004;24.868;2023-05-01T09:11:23;98364.94;;;20.06;55.10
6532;BME280;3299;42.004;24.868;2023-05-01T09:13:49;98402.53;;;20.31;55.00
6532;BME280;3299;42.004;24.868;2023-05-01T09:16:16;98397.97;;;20.33;55.88
6532;BME280;3299;42.004;24.868;2023-05-01T09:18:41;98421.09;;;20.45;55.61
6532;BME280;3299;42.004;24.868;2023-05-01T09:21:07;98421.25;;;20.52;56.79
6532;BME280;3299;42.004;24.868;2023-05-01T09:23:32;98395.78;;;20.44;57.58
6532;BME280;3299;42.004;24.868;2023-05-01T09:26:03;98423.19;;;20.66;54.93
6532;BME280;3299;42.004;24.868;2023-05-01T09:28:46;98393.81;;;20.54;52.14
6532;BME280;3299;42.004;24.868;2023-05-01T09:33:51;98385.06;;;20.62;50.73
6532;BME280;3299;42.004;24.868;2023-05-01T09:36:18;98424.31;;;20.79;51.04
6532;BME280;3299;42.004;24.868;2023-05-01T09:38:44;98393.66;;;20.32;51.23
6532;BME280;3299;42.004;24.868;2023-05-01T09:41:09;98414.38;;;20.51;52.42
6532;BME280;3299;42.004;24.868;2023-05-01T09:43:35;98351.28;;;20.03;51.36
6532;BME280;3299;42.004;24.868;2023-05-01T09:46:05;98438.00;;;20.59;51.53
6532;BME280;3299;42.004;24.868;2023-05-01T09:48:34;98355.56;;;20.20;48.94
6532;BME280;3299;42.004;24.868;2023-05-01T09:51:00;98354.28;;;20.16;50.33
6532;BME280;3299;42.004;24.868;2023-05-01T09:53:39;98433.84;;;20.80;49.34
6532;BME280;3299;42.004;24.868;2023-05-01T09:56:05;98401.16;;;20.67;48.83
6532;BME280;3299;42.004;24.868;2023-05-01T09:58:31;98382.13;;;20.65;49.94
6532;BME280;3299;42.004;24.868;2023-05-01T10:00:57;98397.50;;;20.84;51.58
6532;BME280;3299;42.004;24.868;2023-05-01T10:03:22;98403.59;;;20.92;50.07
6532;BME280;3299;42.004;24.868;2023-05-01T10:05:47;98412.22;;;21.17;51.27
6532;BME280;3299;42.004;24.868;2023-05-01T10:08:13;98423.16;;;21.36;50.21
6532;BME280;3299;42.004;24.868;2023-05-01T10:10:42;98410.88;;;21.51;48.77
6532;BME280;3299;42.004;24.868;2023-05-01T10:13:17;98354.84;;;21.12;47.17
6532;BME280;3299;42.004;24.868;2023-05-01T10:15:44;98355.34;;;21.08;46.94
6532;BME280;3299;42.004;24.868;2023-05-01T10:18:11;98415.19;;;21.52;47.58
6532;BME280;3299;42.004;24.868;2023-05-01T10:20:38;98428.34;;;21.52;45.88
6532;BME280;3299;42.004;24.868;2023-05-01T10:23:03;98418.38;;;21.70;46.43
6532;BME280;3299;42.004;24.868;2023-05-01T10:25:30;98409.56;;;21.86;46.11
6532;BME280;3299;42.004;24.868;2023-05-01T10:27:56;98407.91;;;21.85;44.12
6532;BME280;3299;42.004;24.868;2023-05-01T10:30:22;98426.19;;;22.09;45.21
6532;BME280;3299;42.004;24.868;2023-05-01T10:32:47;98411.53;;;22.06;45.37
6532;BME280;3299;42.004;24.868;2023-05-01T10:35:23;98408.38;;;22.11;44.32
6532;BME280;3299;42.004;24.868;2023-05-01T10:38:00;98424.50;;;22.30;43.58
6532;BME280;3299;42.004;24.868;2023-05-01T10:45:46;98395.88;;;22.64;43.97
6532;BME280;3299;42.004;24.868;2023-05-01T10:48:14;98402.59;;;22.67;44.33
6532;BME280;3299;42.004;24.868;2023-05-01T10:51:12;98435.38;;;23.01;44.36
6532;BME280;3299;42.004;24.868;2023-05-01T10:53:38;98436.94;;;23.25;42.82
6532;BME280;3299;42.004;24.868;2023-05-01T10:56:05;98441.03;;;23.42;42.97
6532;BME280;3299;42.004;24.868;2023-05-01T11:01:31;98451.00;;;23.81;42.09
6532;BME280;3299;42.004;24.868;2023-05-01T11:12:02;98413.34;;;23.23;41.01
6532;BME280;3299;42.004;24.868;2023-05-01T11:14:27;98376.13;;;23.04;41.27
6532;BME280;3299;42.004;24.868;2023-05-01T11:16:53;98453.63;;;23.61;41.24
6532;BME280;3299;42.004;24.868;2023-05-01T11:21:48;98433.38;;;23.67;41.27
6532;BME280;3299;42.004;24.868;2023-05-01T11:24:15;98430.94;;;23.31;41.32
6532;BME280;3299;42.004;24.868;2023-05-01T11:26:43;98465.59;;;23.42;41.67
6532;BME280;3299;42.004;24.868;2023-05-01T11:29:09;98432.09;;;23.14;41.07
6532;BME280;3299;42.004;24.868;2023-05-01T11:31:36;98423.19;;;23.29;41.72
6532;BME280;3299;42.004;24.868;2023-05-01T11:34:02;98441.75;;;23.50;41.54
6532;BME280;3299;42.004;24.868;2023-05-01T11:36:29;98459.59;;;23.83;41.96
6532;BME280;3299;42.004;24.868;2023-05-01T11:39:13;98464.56;;;24.08;42.01
6532;BME280;3299;42.004;24.868;2023-05-01T11:41:39;98386.34;;;23.77;42.61
6532;BME280;3299;42.004;24.868;2023-05-01T11:44:05;98430.38;;;24.27;40.43
6532;BME280;3299;42.004;24.868;2023-05-01T11:46:31;98423.16;;;23.94;40.19
6532;BME280;3299;42.004;24.868;2023-05-01T11:49:00;98452.75;;;23.89;39.05
6532;BME280;3299;42.004;24.868;2023-05-01T11:51:27;98442.47;;;23.79;40.25
6532;BME280;3299;42.004;24.868;2023-05-01T11:56:27;98394.91;;;23.79;40.92
6532;BME280;3299;42.004;24.868;2023-05-01T11:58:56;98397.63;;;23.86;38.38
6532;BME280;3299;42.004;24.868;2023-05-01T12:01:35;98368.53;;;23.86;37.79
6532;BME280;3299;42.004;24.868;2023-05-01T12:04:02;98362.75;;;23.76;37.90
6532;BME280;3299;42.004;24.868;2023-05-01T12:06:38;98359.03;;;23.71;38.78
6532;BME280;3299;42.004;24.868;2023-05-01T12:09:09;98387.41;;;23.62;40.52
6532;BME280;3299;42.004;24.868;2023-05-01T12:11:36;98425.09;;;23.71;41.50
6532;BME280;3299;42.004;24.868;2023-05-01T12:14:02;98397.69;;;23.22;42.16
6532;BME280;3299;42.004;24.868;2023-05-01T12:16:29;98366.88;;;23.14;40.85
6532;BME280;3299;42.004;24.868;2023-05-01T12:18:55;98431.97;;;23.51;41.40
6532;BME280;3299;42.004;24.868;2023-05-01T12:21:20;98432.28;;;23.12;41.98
6532;BME280;3299;42.004;24.868;2023-05-01T12:23:46;98421.53;;;22.85;43.23
6532;BME280;3299;42.004;24.868;2023-05-01T12:26:19;98376.75;;;22.62;42.53
6532;BME280;3299;42.004;24.868;2023-05-01T12:28:55;98438.66;;;22.89;42.82
6532;BME280;3299;42.004;24.868;2023-05-01T12:31:22;98373.16;;;22.41;42.53
6532;BME280;3299;42.004;24.868;2023-05-01T12:36:21;98430.03;;;23.24;40.64
6532;BME280;3299;42.004;24.868;2023-05-01T12:39:05;98429.44;;;23.43;40.12
6532;BME280;3299;42.004;24.868;2023-05-01T12:41:44;98388.19;;;23.42;39.57
6532;BME280;3299;42.004;24.868;2023-05-01T12:44:22;98450.00;;;24.18;39.60
6532;BME280;3299;42.004;24.868;2023-05-01T12:46:58;98408.03;;;24.36;38.61
6532;BME280;3299;42.004;24.868;2023-05-01T12:49:24;98368.84;;;24.18;37.97
6532;BME280;3299;42.004;24.868;2023-05-01T12:51:55;98364.94;;;24.14;38.85
6532;BME280;3299;42.004;24.868;2023-05-01T12:54:23;98449.09;;;24.74;37.69
6532;BME280;3299;42.004;24.868;2023-05-01T12:56:51;98368.69;;;24.26;38.49
6532;BME280;3299;42.004;24.868;2023-05-01T12:59:25;98450.16;;;25.13;37.90
6532;BME280;3299;42.004;24.868;2023-05-01T13:04:23;98451.69;;;25.82;35.89
6532;BME280;3299;42.004;24.868;2023-05-01T13:06:49;98399.84;;;25.73;35.38
6532;BME280;3299;42.004;24.868;2023-05-01T13:09:14;98368.44;;;25.57;35.29
6532;BME280;3299;42.004;24.868;2023-05-01T13:11:41;98395.78;;;25.77;34.37
6532;BME280;3299;42.004;24.868;2023-05-01T13:14:08;98436.47;;;25.97;34.65
6532;BME280;3299;42.004;24.868;2023-05-01T13:16:34;98405.06;;;25.34;35.78
6532;BME280;3299;42.004;24.868;2023-05-01T13:19:08;98367.94;;;24.87;36.23
6532;BME280;3299;42.004;24.868;2023-05-01T13:21:33;98376.72;;;24.94;37.14
6532;BME280;3299;42.004;24.868;2023-05-01T13:24:00;98422.63;;;25.08;36.88
6532;BME280;3299;42.004;24.868;2023-05-01T13:26:29;98427.53;;;25.51;36.42
6532;BME280;3299;42.004;24.868;2023-05-01T13:29:00;98434.78;;;25.30;35.46
6532;BME280;3299;42.004;24.868;2023-05-01T13:31:26;98437.53;;;25.15;35.97
6532;BME280;3299;42.004;24.868;2023-05-01T13:33:53;98370.63;;;25.00;35.87
6532;BME280;3299;42.004;24.868;2023-05-01T13:36:19;98374.44;;;25.25;35.30
6532;BME280;3299;42.004;24.868;2023-05-01T13:38:47;98371.75;;;25.85;34.80
6532;BME280;3299;42.004;24.868;2023-05-01T13:41:18;98443.25;;;26.45;33.77
6532;BME280;3299;42.004;24.868;2023-05-01T13:43:48;98440.00;;;26.56;33.64
6532;BME280;3299;42.004;24.868;2023-05-01T13:46:17;98429.16;;;26.84;33.00
6532;BME280;3299;42.004;24.868;2023-05-01T13:48:43;98455.22;;;27.26;32.60
6532;BME280;3299;42.004;24.868;2023-05-01T13:51:10;98398.44;;;27.20;32.45
6532;BME280;3299;42.004;24.868;2023-05-01T13:53:38;98446.56;;;27.50;31.30
6532;BME280;3299;42.004;24.868;2023-05-01T13:56:05;98435.25;;;27.61;31.39